createdAt,value
2018-11-07T00:00:40.033Z,14.20
2018-11-07T00:03:07.706Z,14.80
2018-11-07T00:05:35.293Z,14.90
2018-11-07T00:08:03.065Z,14.80
2018-11-07T00:10:45.480Z,14.60
2018-11-07T00:13:13.063Z,14.50
2018-11-07T00:15:40.658Z,14.10
2018-11-07T00:18:08.435Z,13.80
2018-11-07T00:20:36.034Z,14.00
2018-11-07T00:23:03.718Z,13.40
2018-11-07T00:25:31.300Z,12.90
2018-11-07T00:27:58.871Z,13.40
2018-11-07T00:30:26.451Z,14.20
2018-11-07T00:32:54.053Z,15.10
2018-11-07T00:35:21.642Z,15.50
2018-11-07T00:37:49.202Z,15.80
2018-11-07T00:40:16.812Z,15.90
2018-11-07T00:42:44.383Z,15.80
2018-11-07T00:45:12.775Z,14.50
2018-11-07T00:47:40.381Z,14.20
2018-11-07T00:50:11.686Z,14.40
2018-11-07T00:52:39.437Z,13.80
2018-11-07T00:55:07.107Z,13.60
2018-11-07T00:57:34.717Z,14.70
2018-11-07T01:00:02.530Z,15.30
2018-11-07T01:02:30.094Z,15.80
2018-11-07T01:04:57.722Z,15.80
2018-11-07T01:07:25.279Z,15.30
2018-11-07T01:09:52.858Z,15.60
2018-11-07T01:12:21.447Z,16.10
2018-11-07T01:14:49.007Z,16.20
2018-11-07T01:17:16.578Z,16.30
2018-11-07T01:19:44.143Z,15.10
2018-11-07T01:22:11.805Z,14.20
2018-11-07T01:24:39.368Z,14.70
2018-11-07T01:27:06.965Z,15.40
2018-11-07T01:29:34.536Z,15.00
2018-11-07T01:32:02.150Z,14.40
2018-11-07T01:34:29.698Z,14.60
2018-11-07T01:36:57.298Z,14.10
2018-11-07T01:39:24.862Z,14.50
2018-11-07T01:41:52.457Z,13.80
2018-11-07T01:44:19.996Z,13.80
2018-11-07T01:46:47.554Z,13.60
2018-11-07T01:49:15.117Z,13.40
2018-11-07T01:51:42.702Z,13.40
2018-11-07T01:54:10.303Z,13.50
2018-11-07T01:56:37.862Z,13.00
2018-11-07T01:59:05.450Z,13.00
2018-11-07T02:01:33.005Z,14.30
2018-11-07T02:04:01.234Z,14.10
2018-11-07T02:06:28.840Z,13.00
2018-11-07T02:08:56.458Z,13.40
2018-11-07T02:11:24.041Z,13.50
2018-11-07T02:13:51.620Z,14.00
2018-11-07T02:16:19.161Z,14.70
2018-11-07T02:18:46.740Z,14.70
2018-11-07T02:21:14.327Z,14.80
2018-11-07T02:23:41.902Z,14.70
2018-11-07T02:26:09.508Z,13.90
2018-11-07T02:28:37.146Z,13.30
2018-11-07T02:31:05.047Z,13.20
2018-11-07T02:33:32.617Z,13.10
2018-11-07T02:36:00.195Z,13.30
2018-11-07T02:38:27.743Z,13.80
2018-11-07T02:40:55.363Z,14.10
2018-11-07T02:43:22.949Z,14.20
2018-11-07T02:45:50.502Z,14.20
2018-11-07T02:48:18.062Z,14.40
2018-11-07T02:50:45.649Z,14.80
2018-11-07T02:53:13.189Z,15.50
2018-11-07T02:55:40.810Z,15.70
2018-11-07T02:58:08.398Z,14.60
2018-11-07T03:00:35.983Z,14.40
2018-11-07T03:03:03.678Z,14.50
2018-11-07T03:05:31.281Z,14.50
2018-11-07T03:07:58.835Z,13.60
2018-11-07T03:10:26.432Z,12.90
2018-11-07T03:12:53.947Z,13.70
2018-11-07T03:15:21.616Z,14.50
2018-11-07T03:17:49.174Z,15.10
2018-11-07T03:20:16.773Z,15.10
2018-11-07T03:22:44.313Z,15.00
2018-11-07T03:25:11.890Z,13.90
2018-11-07T03:27:39.441Z,13.40
2018-11-07T03:30:08.130Z,12.80
2018-11-07T03:32:35.739Z,12.50
2018-11-07T03:35:03.439Z,12.10
2018-11-07T03:37:31.037Z,12.10
2018-11-07T03:39:58.734Z,12.10
2018-11-07T03:42:26.201Z,11.60
2018-11-07T03:44:53.766Z,11.30
2018-11-07T03:47:21.350Z,11.50
2018-11-07T03:49:48.924Z,12.10
2018-11-07T03:52:16.538Z,11.90
2018-11-07T03:54:44.069Z,11.70
2018-11-07T03:57:11.751Z,11.50
2018-11-07T03:59:39.318Z,11.20
2018-11-07T04:02:06.885Z,11.40
2018-11-07T04:04:34.506Z,12.10
2018-11-07T04:07:02.008Z,12.50
2018-11-07T04:09:29.576Z,13.10
2018-11-07T04:11:57.205Z,13.40
2018-11-07T04:14:24.746Z,12.80
2018-11-07T04:16:52.306Z,12.10
2018-11-07T04:19:19.874Z,12.20
2018-11-07T04:21:47.442Z,12.70
2018-11-07T04:24:15.016Z,12.10
2018-11-07T04:26:42.575Z,12.50
2018-11-07T04:29:10.136Z,13.00
2018-11-07T04:31:37.734Z,12.50
2018-11-07T04:34:05.347Z,12.30
2018-11-07T04:36:32.897Z,11.90
2018-11-07T04:39:00.515Z,11.30
2018-11-07T04:41:28.098Z,10.90
2018-11-07T04:43:55.716Z,11.30
2018-11-07T04:46:23.326Z,12.60
2018-11-07T04:48:50.969Z,13.70
2018-11-07T04:51:18.534Z,14.60
2018-11-07T04:53:46.085Z,14.30
2018-11-07T04:56:13.643Z,13.60
2018-11-07T04:58:41.169Z,13.60
2018-11-07T05:01:08.811Z,13.60
2018-11-07T05:03:36.406Z,13.20
2018-11-07T05:06:04.006Z,12.70
2018-11-07T05:08:31.603Z,12.30
2018-11-07T05:10:59.130Z,11.90
2018-11-07T05:13:26.668Z,12.10
2018-11-07T05:15:54.233Z,12.10
2018-11-07T05:18:21.798Z,11.40
2018-11-07T05:20:49.438Z,11.80
2018-11-07T05:23:17.000Z,12.90
2018-11-07T05:25:44.617Z,13.60
2018-11-07T05:28:12.195Z,13.60
2018-11-07T05:30:40.512Z,13.60
2018-11-07T05:33:08.098Z,14.10
2018-11-07T05:35:35.703Z,14.80
2018-11-07T05:38:03.267Z,14.60
2018-11-07T05:40:30.809Z,13.40
2018-11-07T05:42:58.362Z,12.50
2018-11-07T05:45:25.934Z,12.60
2018-11-07T05:47:53.598Z,13.10
2018-11-07T05:50:21.190Z,12.70
2018-11-07T05:52:48.794Z,12.20
2018-11-07T05:55:16.391Z,11.60
2018-11-07T05:57:43.982Z,11.10
2018-11-07T06:00:12.640Z,10.90
2018-11-07T06:02:40.674Z,11.40
2018-11-07T06:05:09.274Z,11.70
2018-11-07T06:07:38.493Z,11.90
2018-11-07T06:10:07.986Z,12.10
2018-11-07T06:12:35.917Z,12.30
2018-11-07T06:15:04.021Z,12.30
2018-11-07T06:17:31.572Z,12.10
2018-11-07T06:19:59.158Z,11.90
2018-11-07T06:22:26.801Z,12.10
2018-11-07T06:24:54.447Z,12.20
2018-11-07T06:27:22.009Z,12.30
2018-11-07T06:29:49.587Z,12.10
2018-11-07T06:32:17.158Z,12.10
2018-11-07T06:34:44.878Z,12.20
2018-11-07T06:37:12.463Z,12.20
2018-11-07T06:39:40.228Z,12.30
2018-11-07T06:42:07.891Z,12.20
2018-11-07T06:44:35.474Z,12.10
2018-11-07T06:47:03.010Z,12.00
2018-11-07T06:49:30.573Z,11.90
2018-11-07T06:51:58.172Z,11.80
2018-11-07T06:54:25.825Z,11.90
2018-11-07T06:56:53.402Z,11.90
2018-11-07T06:59:21.023Z,11.90
2018-11-07T07:01:48.701Z,12.00
2018-11-07T07:04:16.723Z,12.00
2018-11-07T07:06:44.415Z,12.10
2018-11-07T07:09:12.100Z,12.10
2018-11-07T07:11:40.098Z,12.00
2018-11-07T07:14:08.174Z,12.00
2018-11-07T07:16:35.775Z,12.00
2018-11-07T07:19:03.409Z,12.10
2018-11-07T07:21:31.038Z,12.30
2018-11-07T07:23:58.714Z,12.50
2018-11-07T07:26:26.302Z,12.60
2018-11-07T07:28:53.978Z,12.60
2018-11-07T07:31:21.706Z,12.60
2018-11-07T07:33:49.476Z,12.60
2018-11-07T07:36:17.027Z,12.60
2018-11-07T07:38:44.740Z,12.50
2018-11-07T07:41:12.446Z,12.60
2018-11-07T07:43:40.031Z,12.70
2018-11-07T07:46:07.669Z,12.70
2018-11-07T07:48:35.370Z,12.90
2018-11-07T07:51:02.954Z,13.00
2018-11-07T07:53:30.630Z,13.10
2018-11-07T07:55:58.279Z,13.00
2018-11-07T07:58:25.934Z,13.00
2018-11-07T08:00:53.511Z,13.10
2018-11-07T08:03:21.103Z,13.30
2018-11-07T08:05:48.703Z,13.30
2018-11-07T08:08:16.381Z,13.40
2018-11-07T08:10:44.010Z,13.40
2018-11-07T08:13:11.609Z,13.40
2018-11-07T08:15:39.186Z,13.50
2018-11-07T08:18:06.813Z,13.60
2018-11-07T08:20:34.378Z,13.50
2018-11-07T08:23:01.963Z,13.50
2018-11-07T08:25:29.566Z,13.50
2018-11-07T08:27:57.126Z,13.60
2018-11-07T08:30:24.671Z,13.70
2018-11-07T08:32:52.227Z,13.80
2018-11-07T08:35:19.806Z,14.00
2018-11-07T08:37:47.454Z,14.40
2018-11-07T08:40:17.426Z,14.70
2018-11-07T08:42:45.048Z,14.60
2018-11-07T08:45:12.910Z,14.50
2018-11-07T08:47:41.078Z,14.40
2018-11-07T08:50:10.543Z,14.30
2018-11-07T08:52:38.130Z,14.40
2018-11-07T08:55:07.155Z,14.40
2018-11-07T08:57:34.714Z,14.40
2018-11-07T09:00:02.366Z,15.10
2018-11-07T09:02:29.957Z,15.90
2018-11-07T09:04:57.617Z,16.30
2018-11-07T09:07:25.252Z,16.20
2018-11-07T09:09:52.806Z,15.80
2018-11-07T09:12:20.379Z,15.50
2018-11-07T09:14:47.956Z,15.50
2018-11-07T09:17:15.556Z,15.50
2018-11-07T09:19:43.185Z,15.20
2018-11-07T09:22:10.763Z,15.10
2018-11-07T09:24:38.323Z,15.10
2018-11-07T09:27:05.878Z,15.50
2018-11-07T09:29:33.467Z,15.50
2018-11-07T09:32:01.074Z,15.90
2018-11-07T09:34:28.628Z,16.10
2018-11-07T09:36:56.211Z,15.80
2018-11-07T09:39:23.779Z,15.60
2018-11-07T09:41:51.376Z,15.50
2018-11-07T09:44:19.095Z,15.70
2018-11-07T09:46:46.693Z,16.30
2018-11-07T09:49:14.310Z,16.30
2018-11-07T09:51:41.892Z,16.20
2018-11-07T09:54:09.551Z,16.10
2018-11-07T09:56:37.186Z,16.40
2018-11-07T09:59:04.750Z,16.20
2018-11-07T10:01:32.382Z,16.00
2018-11-07T10:04:00.071Z,15.90
2018-11-07T10:06:27.723Z,15.90
2018-11-07T10:08:55.294Z,16.00
2018-11-07T10:11:22.854Z,16.00
2018-11-07T10:13:50.514Z,16.00
2018-11-07T10:16:18.146Z,15.90
2018-11-07T10:18:45.805Z,15.90
2018-11-07T10:21:13.637Z,15.80
2018-11-07T10:23:41.327Z,15.80
2018-11-07T10:26:09.130Z,15.80
2018-11-07T10:28:36.810Z,16.00
2018-11-07T10:31:04.643Z,16.20
2018-11-07T10:33:32.202Z,16.20
2018-11-07T10:35:59.823Z,16.10
2018-11-07T10:38:27.545Z,16.10
2018-11-07T10:40:55.079Z,16.10
2018-11-07T10:43:22.655Z,16.10
2018-11-07T10:45:50.233Z,16.20
2018-11-07T10:48:17.926Z,16.40
2018-11-07T10:50:45.542Z,16.70
2018-11-07T10:53:13.198Z,17.30
2018-11-07T10:55:40.853Z,17.90
2018-11-07T10:58:08.521Z,18.30
2018-11-07T11:01:42.830Z,18.40
2018-11-07T11:04:10.370Z,18.20
2018-11-07T11:06:38.066Z,18.70
2018-11-07T11:09:06.516Z,19.70
2018-11-07T11:11:34.099Z,21.30
2018-11-07T11:14:02.060Z,23.00
2018-11-07T11:16:29.634Z,22.60
2018-11-07T11:18:57.216Z,22.40
2018-11-07T11:21:24.830Z,25.20
2018-11-07T11:23:52.426Z,29.00
2018-11-07T11:26:20.002Z,31.80
2018-11-07T11:28:47.662Z,30.00
2018-11-07T11:31:15.222Z,29.20
2018-11-07T11:33:43.009Z,27.90
2018-11-07T11:36:10.547Z,27.10
2018-11-07T11:38:38.165Z,26.50
2018-11-07T11:41:05.898Z,24.70
2018-11-07T11:43:33.526Z,23.40
2018-11-07T11:46:01.151Z,23.80
2018-11-07T11:48:28.762Z,23.50
2018-11-07T11:50:56.407Z,22.90
2018-11-07T11:53:24.038Z,22.60
2018-11-07T11:55:51.704Z,22.20
2018-11-07T11:58:19.267Z,22.30
2018-11-07T12:00:47.478Z,22.10
2018-11-07T12:03:15.158Z,22.50
2018-11-07T12:05:42.814Z,22.40
2018-11-07T12:08:10.659Z,22.00
2018-11-07T12:10:38.234Z,21.10
2018-11-07T12:13:05.936Z,20.60
2018-11-07T12:15:33.537Z,20.90
2018-11-07T12:18:01.088Z,21.00
2018-11-07T12:20:28.830Z,21.80
2018-11-07T12:22:56.483Z,22.00
2018-11-07T12:25:24.136Z,21.80
2018-11-07T12:27:51.824Z,22.30
2018-11-07T12:30:20.870Z,21.90
2018-11-07T12:32:49.421Z,21.60
2018-11-07T12:35:17.582Z,20.70
2018-11-07T12:37:45.240Z,20.20
2018-11-07T12:40:13.135Z,19.80
2018-11-07T12:42:40.889Z,19.70
2018-11-07T12:45:09.659Z,20.10
2018-11-07T12:47:37.746Z,20.50
2018-11-07T12:50:07.751Z,20.80
2018-11-07T12:52:35.199Z,20.80
2018-11-07T12:55:02.926Z,20.70
2018-11-07T12:57:30.565Z,21.00
2018-11-07T12:59:58.086Z,21.70
2018-11-07T13:02:25.683Z,21.70
2018-11-07T13:04:53.275Z,20.90
2018-11-07T13:07:20.934Z,20.20
2018-11-07T13:09:48.579Z,19.60
2018-11-07T13:12:16.210Z,19.20
2018-11-07T13:14:43.823Z,19.00
2018-11-07T13:17:11.466Z,18.80
2018-11-07T13:19:39.022Z,18.70
2018-11-07T13:22:06.675Z,18.70
2018-11-07T13:24:34.302Z,18.60
2018-11-07T13:27:01.913Z,18.50
2018-11-07T13:29:29.507Z,18.50
2018-11-07T13:31:57.154Z,18.40
2018-11-07T13:34:24.796Z,18.40
2018-11-07T13:36:52.348Z,18.40
2018-11-07T13:39:20.209Z,18.30
2018-11-07T13:41:47.514Z,18.30
2018-11-07T13:44:15.163Z,18.30
2018-11-07T13:46:42.819Z,18.30
2018-11-07T13:49:11.114Z,18.20
2018-11-07T13:51:38.762Z,18.10
2018-11-07T13:54:06.330Z,18.10
2018-11-07T13:56:33.898Z,18.10
2018-11-07T13:59:01.475Z,18.10
2018-11-07T14:01:29.484Z,18.00
2018-11-07T14:03:57.043Z,18.00
2018-11-07T14:06:24.633Z,18.00
2018-11-07T14:08:52.206Z,17.90
2018-11-07T14:11:19.902Z,17.90
2018-11-07T14:13:47.494Z,17.90
2018-11-07T14:16:15.120Z,17.80
2018-11-07T14:18:42.683Z,17.80
2018-11-07T14:21:10.400Z,17.70
2018-11-07T14:23:38.136Z,17.70
2018-11-07T14:26:05.750Z,17.70
2018-11-07T14:28:33.435Z,17.60
2018-11-07T14:31:01.084Z,17.60
2018-11-07T14:33:28.899Z,17.50
2018-11-07T14:35:56.486Z,17.40
2018-11-07T14:38:24.095Z,17.40
2018-11-07T14:40:51.809Z,17.40
2018-11-07T14:43:20.250Z,17.40
2018-11-07T14:45:47.843Z,17.40
2018-11-07T14:48:15.386Z,17.40
2018-11-07T14:50:43.019Z,17.30
2018-11-07T14:53:10.607Z,17.30
2018-11-07T14:55:38.146Z,17.30
2018-11-07T14:58:05.777Z,17.20
2018-11-07T15:00:33.359Z,17.10
2018-11-07T15:03:00.917Z,17.10
2018-11-07T15:05:28.561Z,17.00
2018-11-07T15:07:56.067Z,16.80
2018-11-07T15:10:23.606Z,16.80
2018-11-07T15:12:51.131Z,16.80
2018-11-07T15:15:19.139Z,16.70
2018-11-07T15:17:46.784Z,16.70
2018-11-07T15:20:15.157Z,16.60
2018-11-07T15:22:42.951Z,16.60
2018-11-07T15:25:11.878Z,16.50
2018-11-07T15:27:40.556Z,16.40
2018-11-07T15:30:09.265Z,16.40
2018-11-07T15:32:37.215Z,16.30
2018-11-07T15:35:05.682Z,16.30
2018-11-07T15:37:33.455Z,16.30
2018-11-07T15:40:01.183Z,16.30
2018-11-07T15:42:28.817Z,16.30
2018-11-07T15:44:56.482Z,16.20
2018-11-07T15:47:24.103Z,16.20
2018-11-07T15:49:57.414Z,16.20
2018-11-07T15:52:25.054Z,16.10
2018-11-07T15:54:52.683Z,16.10
2018-11-07T15:57:20.278Z,16.20
2018-11-07T15:59:48.022Z,16.10
2018-11-07T16:02:15.665Z,16.00
2018-11-07T16:04:43.323Z,16.00
2018-11-07T16:07:10.978Z,15.90
2018-11-07T16:09:38.738Z,15.90
2018-11-07T16:12:06.454Z,15.90
2018-11-07T16:14:34.286Z,15.90
2018-11-07T16:17:01.827Z,15.90
2018-11-07T16:19:29.445Z,15.80
2018-11-07T16:21:57.018Z,15.70
2018-11-07T16:24:24.667Z,15.70
2018-11-07T16:26:52.313Z,15.70
2018-11-07T16:29:19.954Z,15.70
2018-11-07T16:31:47.554Z,15.70
2018-11-07T16:34:15.162Z,15.60
2018-11-07T16:36:42.726Z,15.60
2018-11-07T16:39:10.915Z,15.60
2018-11-07T16:41:38.699Z,15.60
2018-11-07T16:44:06.194Z,15.60
2018-11-07T16:46:35.458Z,15.50
2018-11-07T16:49:03.047Z,15.50
2018-11-07T16:51:30.771Z,15.50
2018-11-07T16:53:59.561Z,15.40
2018-11-07T16:56:27.189Z,15.40
2018-11-07T16:58:54.784Z,15.50
2018-11-07T17:01:22.404Z,15.50
2018-11-07T17:03:49.985Z,15.50
2018-11-07T17:06:17.587Z,15.60
2018-11-07T17:08:45.185Z,15.60
2018-11-07T17:11:12.773Z,15.50
2018-11-07T17:13:40.354Z,15.50
2018-11-07T17:16:08.022Z,15.50
2018-11-07T17:18:35.647Z,15.50
2018-11-07T17:21:03.265Z,15.50
2018-11-07T17:23:30.982Z,15.50
2018-11-07T17:25:58.770Z,15.40
2018-11-07T17:28:26.347Z,15.40
2018-11-07T17:30:54.022Z,15.40
2018-11-07T17:33:21.658Z,15.40
2018-11-07T17:35:49.203Z,15.50
2018-11-07T17:38:16.870Z,15.50
2018-11-07T17:40:44.547Z,15.40
2018-11-07T17:43:12.126Z,15.30
2018-11-07T17:45:39.739Z,15.30
2018-11-07T17:48:07.549Z,15.40
2018-11-07T17:50:35.296Z,15.30
2018-11-07T17:53:03.009Z,15.30
2018-11-07T17:55:30.712Z,15.30
2018-11-07T17:57:58.616Z,15.30
2018-11-07T18:00:30.789Z,15.20
2018-11-07T18:02:58.468Z,15.10
2018-11-07T18:05:26.173Z,15.10
2018-11-07T18:07:53.781Z,15.10
2018-11-07T18:10:21.414Z,15.10
2018-11-07T18:12:49.006Z,15.10
2018-11-07T18:15:16.661Z,15.10
2018-11-07T18:17:44.440Z,15.10
2018-11-07T18:20:13.221Z,15.20
2018-11-07T18:22:40.884Z,15.20
2018-11-07T18:25:09.531Z,15.20
2018-11-07T18:27:37.847Z,15.10
2018-11-07T18:30:07.003Z,15.00
2018-11-07T18:32:34.666Z,14.90
2018-11-07T18:35:02.479Z,14.90
2018-11-07T18:37:30.101Z,14.80
2018-11-07T18:39:57.821Z,14.80
2018-11-07T18:42:25.510Z,14.80
2018-11-07T18:44:53.313Z,14.80
2018-11-07T18:47:21.035Z,14.90
2018-11-07T18:49:48.685Z,14.90
2018-11-07T18:52:16.382Z,15.00
2018-11-07T18:54:44.069Z,15.00
2018-11-07T18:57:11.858Z,15.00
2018-11-07T18:59:39.645Z,15.00
2018-11-07T19:02:07.345Z,15.10
2018-11-07T19:04:34.987Z,15.10
2018-11-07T19:07:02.645Z,15.00
2018-11-07T19:09:30.300Z,15.00
2018-11-07T19:11:57.962Z,15.00
2018-11-07T19:14:25.643Z,14.90
2018-11-07T19:16:53.513Z,15.00
2018-11-07T19:19:21.100Z,14.90
2018-11-07T19:21:48.790Z,14.90
2018-11-07T19:24:16.796Z,14.90
2018-11-07T19:26:44.526Z,14.90
2018-11-07T19:29:12.616Z,14.80
2018-11-07T19:31:40.290Z,14.70
2018-11-07T19:34:07.938Z,14.60
2018-11-07T19:36:35.562Z,14.70
2018-11-07T19:39:04.659Z,14.70
2018-11-07T19:41:32.334Z,14.70
2018-11-07T19:43:59.967Z,14.70
2018-11-07T19:46:27.553Z,14.60
2018-11-07T19:48:55.189Z,14.80
2018-11-07T19:51:22.831Z,14.90
2018-11-07T19:53:50.493Z,15.00
2018-11-07T19:56:18.102Z,15.00
2018-11-07T19:58:46.567Z,15.10
2018-11-07T20:01:14.910Z,15.10
2018-11-07T20:03:42.558Z,15.10
2018-11-07T20:06:10.240Z,15.20
2018-11-07T20:08:37.861Z,15.10
2018-11-07T20:11:05.803Z,15.10
2018-11-07T20:13:33.419Z,15.00
2018-11-07T20:16:01.063Z,15.00
2018-11-07T20:18:28.691Z,14.90
2018-11-07T20:20:56.317Z,15.00
2018-11-07T20:23:24.002Z,15.10
2018-11-07T20:25:51.565Z,15.10
2018-11-07T20:28:19.146Z,15.10
2018-11-07T20:30:46.775Z,15.10
2018-11-07T20:33:14.485Z,15.10
2018-11-07T20:35:42.104Z,15.10
2018-11-07T20:38:09.710Z,15.20
2018-11-07T20:40:37.343Z,15.20
2018-11-07T20:43:05.247Z,15.20
2018-11-07T20:45:32.910Z,15.10
2018-11-07T20:48:00.467Z,15.20
2018-11-07T20:50:28.135Z,15.20
2018-11-07T20:52:55.748Z,15.20
2018-11-07T20:55:23.365Z,15.20
2018-11-07T20:57:50.955Z,15.10
2018-11-07T21:00:20.986Z,15.00
2018-11-07T21:02:48.878Z,15.00
2018-11-07T21:05:16.548Z,14.90
2018-11-07T21:07:44.243Z,14.90
2018-11-07T21:10:15.767Z,14.80
2018-11-07T21:12:43.859Z,14.80
2018-11-07T21:15:12.748Z,14.90
2018-11-07T21:17:41.495Z,14.90
2018-11-07T21:20:09.229Z,15.00
2018-11-07T21:22:37.203Z,15.00
2018-11-07T21:25:05.134Z,15.10
2018-11-07T21:27:32.762Z,15.10
2018-11-07T21:30:00.783Z,15.10
2018-11-07T21:32:28.516Z,15.20
2018-11-07T21:34:56.569Z,15.20
2018-11-07T21:37:24.278Z,15.10
2018-11-07T21:39:51.898Z,15.10
2018-11-07T21:42:19.538Z,15.00
2018-11-07T21:44:47.367Z,15.00
2018-11-07T21:47:14.979Z,15.00
2018-11-07T21:49:42.828Z,15.00
2018-11-07T21:52:10.413Z,15.00
2018-11-07T21:54:38.091Z,15.00
2018-11-07T21:57:05.732Z,15.00
2018-11-07T21:59:33.304Z,15.10
2018-11-07T22:02:00.912Z,15.10
2018-11-07T22:04:28.514Z,15.10
2018-11-07T22:06:56.090Z,15.10
2018-11-07T22:09:23.715Z,15.20
2018-11-07T22:11:51.339Z,15.20
2018-11-07T22:14:18.963Z,15.20
2018-11-07T22:16:46.563Z,15.20
2018-11-07T22:19:14.152Z,15.20
2018-11-07T22:21:41.784Z,15.10
2018-11-07T22:24:09.462Z,15.00
2018-11-07T22:26:36.970Z,14.90
2018-11-07T22:29:04.906Z,14.80
2018-11-07T22:31:32.576Z,14.80
2018-11-07T22:34:00.106Z,14.90
2018-11-07T22:36:27.710Z,14.90
2018-11-07T22:38:55.273Z,14.80
2018-11-07T22:41:23.028Z,14.90
2018-11-07T22:43:50.668Z,14.90
2018-11-07T22:46:18.262Z,14.90
2018-11-07T22:48:45.802Z,14.70
2018-11-07T22:51:13.437Z,14.30
2018-11-07T22:53:41.095Z,14.30
2018-11-07T22:56:08.774Z,14.50
2018-11-07T22:58:36.355Z,14.50
2018-11-07T23:01:10.068Z,14.20
2018-11-07T23:03:37.775Z,13.80
2018-11-07T23:06:05.677Z,13.70
2018-11-07T23:08:33.270Z,13.80
2018-11-07T23:11:00.878Z,13.70
2018-11-07T23:13:28.453Z,13.90
2018-11-07T23:15:56.031Z,14.20
2018-11-07T23:18:23.639Z,14.60
2018-11-07T23:20:51.232Z,14.80
2018-11-07T23:23:19.007Z,14.50
2018-11-07T23:25:46.767Z,14.40
2018-11-07T23:28:14.534Z,14.90
2018-11-07T23:30:42.168Z,15.00
2018-11-07T23:33:09.939Z,14.40
2018-11-07T23:35:37.555Z,13.90
2018-11-07T23:38:05.563Z,13.60
2018-11-07T23:40:33.176Z,13.30
2018-11-07T23:43:00.874Z,13.40
2018-11-07T23:45:28.432Z,13.80
2018-11-07T23:47:55.978Z,13.80
2018-11-07T23:50:23.576Z,14.10
2018-11-07T23:52:52.242Z,14.10
2018-11-07T23:55:21.078Z,13.60
2018-11-07T23:57:49.542Z,13.60
